sensor_id;sensor_type;location;lat;lon;timestamp;pressure;altitude;pressure_sealevel;temperature
24740;BMP280;45234;48.148;17.128;2023-05-16T00:00:22;99533.78;;;14.72
24740;BMP280;45234;48.148;17.128;2023-05-16T00:02:54;99524.31;;;14.66
24740;BMP280;45234;48.148;17.128;2023-05-16T00:05:21;99544.59;;;14.64
24740;BMP280;45234;48.148;17.128;2023-05-16T00:07:48;99538.03;;;14.61
24740;BMP280;45234;48.148;17.128;2023-05-16T00:10:15;99542.72;;;14.59
24740;BMP280;45234;48.148;17.128;2023-05-16T00:12:42;99525.13;;;14.55
24740;BMP280;45234;48.148;17.128;2023-05-16T00:15:11;99515.16;;;14.52
24740;BMP280;45234;48.148;17.128;2023-05-16T00:17:39;99525.94;;;14.55
24740;BMP280;45234;48.148;17.128;2023-05-16T00:20:07;99518.31;;;14.54
24740;BMP280;45234;48.148;17.128;2023-05-16T00:22:40;99519.94;;;14.55
24740;BMP280;45234;48.148;17.128;2023-05-16T00:25:08;99512.66;;;14.57
24740;BMP280;45234;48.148;17.128;2023-05-16T00:27:35;99512.97;;;14.60
24740;BMP280;45234;48.148;17.128;2023-05-16T00:30:03;99515.91;;;14.64
24740;BMP280;45234;48.148;17.128;2023-05-16T00:32:33;99514.66;;;14.66
24740;BMP280;45234;48.148;17.128;2023-05-16T00:35:00;99522.34;;;14.73
24740;BMP280;45234;48.148;17.128;2023-05-16T00:37:31;99519.03;;;14.77
24740;BMP280;45234;48.148;17.128;2023-05-16T00:39:58;99520.97;;;14.82
24740;BMP280;45234;48.148;17.128;2023-05-16T00:42:25;99525.69;;;14.85
24740;BMP280;45234;48.148;17.128;2023-05-16T00:44:52;99511.41;;;14.88
24740;BMP280;45234;48.148;17.128;2023-05-16T00:47:19;99514.09;;;14.93
24740;BMP280;45234;48.148;17.128;2023-05-16T00:49:47;99521.00;;;14.99
24740;BMP280;45234;48.148;17.128;2023-05-16T00:52:15;99511.66;;;15.03
24740;BMP280;45234;48.148;17.128;2023-05-16T00:54:42;99512.75;;;15.07
24740;BMP280;45234;48.148;17.128;2023-05-16T00:57:12;99515.97;;;15.09
24740;BMP280;45234;48.148;17.128;2023-05-16T00:59:40;99524.34;;;15.11
24740;BMP280;45234;48.148;17.128;2023-05-16T01:02:08;99514.69;;;15.11
24740;BMP280;45234;48.148;17.128;2023-05-16T01:04:37;99527.03;;;15.16
24740;BMP280;45234;48.148;17.128;2023-05-16T01:07:04;99513.75;;;15.18
24740;BMP280;45234;48.148;17.128;2023-05-16T01:09:35;99506.47;;;15.20
24740;BMP280;45234;48.148;17.128;2023-05-16T01:12:27;99500.06;;;15.10
24740;BMP280;45234;48.148;17.128;2023-05-16T01:17:52;99497.63;;;15.21
24740;BMP280;45234;48.148;17.128;2023-05-16T01:20:36;99501.94;;;15.15
24740;BMP280;45234;48.148;17.128;2023-05-16T01:26:18;99502.19;;;15.13
24740;BMP280;45234;48.148;17.128;2023-05-16T01:28:46;99506.94;;;15.17
24740;BMP280;45234;48.148;17.128;2023-05-16T01:31:13;99506.25;;;15.21
24740;BMP280;45234;48.148;17.128;2023-05-16T01:33:40;99504.94;;;15.24
24740;BMP280;45234;48.148;17.128;2023-05-16T01:36:20;99499.19;;;15.22
24740;BMP280;45234;48.148;17.128;2023-05-16T01:42:01;99489.63;;;15.10
24740;BMP280;45234;48.148;17.128;2023-05-16T01:47:12;99491.28;;;15.17
24740;BMP280;45234;48.148;17.128;2023-05-16T01:52:59;99478.28;;;15.05
24740;BMP280;45234;48.148;17.128;2023-05-16T01:55:52;99471.81;;;15.07
24740;BMP280;45234;48.148;17.128;2023-05-16T01:58:25;99476.09;;;15.13
24740;BMP280;45234;48.148;17.128;2023-05-16T02:01:03;99479.72;;;15.12
24740;BMP280;45234;48.148;17.128;2023-05-16T02:03:31;99479.81;;;15.18
24740;BMP280;45234;48.148;17.128;2023-05-16T02:05:59;99485.59;;;15.20
24740;BMP280;45234;48.148;17.128;2023-05-16T02:08:28;99484.56;;;15.21
24740;BMP280;45234;48.148;17.128;2023-05-16T02:10:56;99481.72;;;15.22
24740;BMP280;45234;48.148;17.128;2023-05-16T02:13:23;99481.47;;;15.24
24740;BMP280;45234;48.148;17.128;2023-05-16T02:15:50;99483.03;;;15.25
24740;BMP280;45234;48.148;17.128;2023-05-16T02:18:18;99479.13;;;15.22
24740;BMP280;45234;48.148;17.128;2023-05-16T02:20:45;99468.81;;;15.15
24740;BMP280;45234;48.148;17.128;2023-05-16T02:23:14;99480.50;;;15.13
24740;BMP280;45234;48.148;17.128;2023-05-16T02:25:42;99493.31;;;15.14
24740;BMP280;45234;48.148;17.128;2023-05-16T02:28:09;99496.50;;;15.17
24740;BMP280;45234;48.148;17.128;2023-05-16T02:30:36;99502.03;;;15.20
24740;BMP280;45234;48.148;17.128;2023-05-16T02:33:03;99502.84;;;15.21
24740;BMP280;45234;48.148;17.128;2023-05-16T02:35:30;99508.84;;;15.21
24740;BMP280;45234;48.148;17.128;2023-05-16T02:37:58;99503.63;;;15.21
24740;BMP280;45234;48.148;17.128;2023-05-16T02:40:26;99513.28;;;15.21
24740;BMP280;45234;48.148;17.128;2023-05-16T02:42:52;99513.28;;;15.21
24740;BMP280;45234;48.148;17.128;2023-05-16T02:45:19;99497.84;;;15.19
24740;BMP280;45234;48.148;17.128;2023-05-16T02:47:46;99499.66;;;15.19
24740;BMP280;45234;48.148;17.128;2023-05-16T02:50:14;99492.06;;;15.17
24740;BMP280;45234;48.148;17.128;2023-05-16T02:52:43;99487.09;;;15.15
24740;BMP280;45234;48.148;17.128;2023-05-16T02:55:10;99481.78;;;15.10
24740;BMP280;45234;48.148;17.128;2023-05-16T02:57:41;99468.66;;;15.05
24740;BMP280;45234;48.148;17.128;2023-05-16T03:00:12;99463.91;;;15.02
24740;BMP280;45234;48.148;17.128;2023-05-16T03:02:43;99450.78;;;14.97
24740;BMP280;45234;48.148;17.128;2023-05-16T03:05:12;99441.28;;;14.91
24740;BMP280;45234;48.148;17.128;2023-05-16T03:07:40;99439.66;;;14.73
24740;BMP280;45234;48.148;17.128;2023-05-16T03:10:07;99441.06;;;14.64
24740;BMP280;45234;48.148;17.128;2023-05-16T03:12:34;99444.19;;;14.50
24740;BMP280;45234;48.148;17.128;2023-05-16T03:15:01;99451.44;;;14.48
24740;BMP280;45234;48.148;17.128;2023-05-16T03:17:31;99465.19;;;14.43
24740;BMP280;45234;48.148;17.128;2023-05-16T03:20:02;99470.09;;;14.39
24740;BMP280;45234;48.148;17.128;2023-05-16T03:22:30;99461.25;;;14.40
24740;BMP280;45234;48.148;17.128;2023-05-16T03:24:58;99465.97;;;14.43
24740;BMP280;45234;48.148;17.128;2023-05-16T03:27:26;99455.53;;;14.43
24740;BMP280;45234;48.148;17.128;2023-05-16T03:29:53;99460.31;;;14.47
24740;BMP280;45234;48.148;17.128;2023-05-16T03:32:21;99464.38;;;14.42
24740;BMP280;45234;48.148;17.128;2023-05-16T03:34:48;99460.75;;;14.43
24740;BMP280;45234;48.148;17.128;2023-05-16T03:37:15;99475.53;;;14.38
24740;BMP280;45234;48.148;17.128;2023-05-16T03:39:42;99477.03;;;14.34
24740;BMP280;45234;48.148;17.128;2023-05-16T03:42:10;99466.16;;;14.25
24740;BMP280;45234;48.148;17.128;2023-05-16T03:44:37;99463.13;;;14.17
24740;BMP280;45234;48.148;17.128;2023-05-16T03:47:04;99466.97;;;14.14
24740;BMP280;45234;48.148;17.128;2023-05-16T03:49:32;99474.34;;;14.17
24740;BMP280;45234;48.148;17.128;2023-05-16T03:51:58;99471.41;;;14.14
24740;BMP280;45234;48.148;17.128;2023-05-16T03:54:26;99475.09;;;14.18
24740;BMP280;45234;48.148;17.128;2023-05-16T03:56:55;99482.81;;;14.24
24740;BMP280;45234;48.148;17.128;2023-05-16T03:59:22;99487.00;;;14.25
24740;BMP280;45234;48.148;17.128;2023-05-16T04:01:49;99491.19;;;14.26
24740;BMP280;45234;48.148;17.128;2023-05-16T04:04:17;99480.78;;;14.26
24740;BMP280;45234;48.148;17.128;2023-05-16T04:06:44;99471.81;;;14.22
24740;BMP280;45234;48.148;17.128;2023-05-16T04:09:11;99469.13;;;14.17
24740;BMP280;45234;48.148;17.128;2023-05-16T04:11:38;99473.66;;;14.10
24740;BMP280;45234;48.148;17.128;2023-05-16T04:14:05;99484.66;;;14.12
24740;BMP280;45234;48.148;17.128;2023-05-16T04:16:33;99479.00;;;14.15
24740;BMP280;45234;48.148;17.128;2023-05-16T04:18:59;99474.22;;;14.12
24740;BMP280;45234;48.148;17.128;2023-05-16T04:21:27;99469.81;;;14.13
24740;BMP280;45234;48.148;17.128;2023-05-16T04:23:53;99475.38;;;14.16
24740;BMP280;45234;48.148;17.128;2023-05-16T04:26:20;99466.59;;;14.22
24740;BMP280;45234;48.148;17.128;2023-05-16T04:28:50;99469.41;;;14.32
24740;BMP280;45234;48.148;17.128;2023-05-16T04:31:17;99464.69;;;14.29
24740;BMP280;45234;48.148;17.128;2023-05-16T04:33:44;99474.31;;;14.29
24740;BMP280;45234;48.148;17.128;2023-05-16T04:36:11;99481.88;;;14.30
24740;BMP280;45234;48.148;17.128;2023-05-16T04:38:38;99481.44;;;14.33
24740;BMP280;45234;48.148;17.128;2023-05-16T04:41:05;99493.34;;;14.29
24740;BMP280;45234;48.148;17.128;2023-05-16T04:43:32;99482.44;;;14.32
24740;BMP280;45234;48.148;17.128;2023-05-16T04:45:59;99490.75;;;14.29
24740;BMP280;45234;48.148;17.128;2023-05-16T04:48:26;99504.19;;;14.38
24740;BMP280;45234;48.148;17.128;2023-05-16T04:50:53;99515.09;;;14.47
24740;BMP280;45234;48.148;17.128;2023-05-16T04:53:21;99531.50;;;14.59
24740;BMP280;45234;48.148;17.128;2023-05-16T04:55:48;99520.91;;;14.65
24740;BMP280;45234;48.148;17.128;2023-05-16T04:58:15;99529.16;;;14.74
24740;BMP280;45234;48.148;17.128;2023-05-16T05:00:42;99533.31;;;14.87
24740;BMP280;45234;48.148;17.128;2023-05-16T05:03:09;99534.28;;;14.97
24740;BMP280;45234;48.148;17.128;2023-05-16T05:05:36;99527.31;;;15.03
24740;BMP280;45234;48.148;17.128;2023-05-16T05:08:03;99527.63;;;15.06
24740;BMP280;45234;48.148;17.128;2023-05-16T05:10:30;99519.59;;;15.08
24740;BMP280;45234;48.148;17.128;2023-05-16T05:12:58;99514.69;;;15.11
24740;BMP280;45234;48.148;17.128;2023-05-16T05:15:25;99512.41;;;15.15
24740;BMP280;45234;48.148;17.128;2023-05-16T05:17:52;99528.28;;;15.13
24740;BMP280;45234;48.148;17.128;2023-05-16T05:20:19;99548.50;;;15.06
24740;BMP280;45234;48.148;17.128;2023-05-16T05:22:47;99542.75;;;15.04
24740;BMP280;45234;48.148;17.128;2023-05-16T05:25:14;99537.19;;;15.01
24740;BMP280;45234;48.148;17.128;2023-05-16T05:27:41;99541.97;;;15.04
24740;BMP280;45234;48.148;17.128;2023-05-16T05:30:08;99538.56;;;15.03
24740;BMP280;45234;48.148;17.128;2023-05-16T05:32:35;99539.22;;;15.10
24740;BMP280;45234;48.148;17.128;2023-05-16T05:35:02;99529.75;;;15.21
24740;BMP280;45234;48.148;17.128;2023-05-16T05:37:30;99527.69;;;15.23
24740;BMP280;45234;48.148;17.128;2023-05-16T05:39:57;99539.38;;;15.21
24740;BMP280;45234;48.148;17.128;2023-05-16T05:42:24;99538.38;;;15.22
24740;BMP280;45234;48.148;17.128;2023-05-16T05:44:51;99543.66;;;15.27
24740;BMP280;45234;48.148;17.128;2023-05-16T05:47:18;99549.53;;;15.34
24740;BMP280;45234;48.148;17.128;2023-05-16T05:49:46;99542.88;;;15.43
24740;BMP280;45234;48.148;17.128;2023-05-16T05:52:13;99538.75;;;15.47
24740;BMP280;45234;48.148;17.128;2023-05-16T05:54:41;99542.72;;;15.49
24740;BMP280;45234;48.148;17.128;2023-05-16T05:57:07;99543.03;;;15.53
24740;BMP280;45234;48.148;17.128;2023-05-16T05:59:34;99537.16;;;15.46
24740;BMP280;45234;48.148;17.128;2023-05-16T06:02:01;99549.13;;;15.42
24740;BMP280;45234;48.148;17.128;2023-05-16T06:04:28;99546.34;;;15.32
24740;BMP280;45234;48.148;17.128;2023-05-16T06:06:55;99534.00;;;15.27
24740;BMP280;45234;48.148;17.128;2023-05-16T06:09:22;99541.50;;;15.24
24740;BMP280;45234;48.148;17.128;2023-05-16T06:11:49;99551.41;;;15.22
24740;BMP280;45234;48.148;17.128;2023-05-16T06:14:16;99546.31;;;15.15
24740;BMP280;45234;48.148;17.128;2023-05-16T06:16:43;99545.53;;;15.14
24740;BMP280;45234;48.148;17.128;2023-05-16T06:19:17;99545.78;;;15.30
24740;BMP280;45234;48.148;17.128;2023-05-16T06:21:47;99549.69;;;15.44
24740;BMP280;45234;48.148;17.128;2023-05-16T06:24:14;99546.66;;;15.52
24740;BMP280;45234;48.148;17.128;2023-05-16T06:26:41;99546.22;;;15.55
24740;BMP280;45234;48.148;17.128;2023-05-16T06:29:08;99539.03;;;15.62
24740;BMP280;45234;48.148;17.128;2023-05-16T06:31:38;99531.84;;;15.58
24740;BMP280;45234;48.148;17.128;2023-05-16T06:34:06;99527.22;;;15.43
24740;BMP280;45234;48.148;17.128;2023-05-16T06:36:33;99528.94;;;15.37
24740;BMP280;45234;48.148;17.128;2023-05-16T06:38:59;99531.00;;;15.35
24740;BMP280;45234;48.148;17.128;2023-05-16T06:41:26;99526.56;;;15.36
24740;BMP280;45234;48.148;17.128;2023-05-16T06:43:53;99527.13;;;15.38
24740;BMP280;45234;48.148;17.128;2023-05-16T06:46:20;99523.06;;;15.47
24740;BMP280;45234;48.148;17.128;2023-05-16T06:48:48;99522.69;;;15.55
24740;BMP280;45234;48.148;17.128;2023-05-16T06:51:17;99520.19;;;15.60
24740;BMP280;45234;48.148;17.128;2023-05-16T06:53:43;99518.66;;;15.64
24740;BMP280;45234;48.148;17.128;2023-05-16T06:56:10;99525.47;;;15.65
24740;BMP280;45234;48.148;17.128;2023-05-16T06:58:38;99524.72;;;15.70
24740;BMP280;45234;48.148;17.128;2023-05-16T07:01:05;99528.44;;;15.74
24740;BMP280;45234;48.148;17.128;2023-05-16T07:03:32;99524.16;;;15.84
24740;BMP280;45234;48.148;17.128;2023-05-16T07:06:00;99529.69;;;16.05
24740;BMP280;45234;48.148;17.128;2023-05-16T07:08:27;99512.03;;;16.17
24740;BMP280;45234;48.148;17.128;2023-05-16T07:10:54;99521.38;;;16.13
24740;BMP280;45234;48.148;17.128;2023-05-16T07:13:21;99524.06;;;16.18
24740;BMP280;45234;48.148;17.128;2023-05-16T07:15:48;99515.69;;;16.16
24740;BMP280;45234;48.148;17.128;2023-05-16T07:18:15;99512.22;;;16.10
24740;BMP280;45234;48.148;17.128;2023-05-16T07:20:42;99506.88;;;16.00
24740;BMP280;45234;48.148;17.128;2023-05-16T07:23:09;99500.31;;;15.81
24740;BMP280;45234;48.148;17.128;2023-05-16T07:25:36;99507.81;;;15.72
24740;BMP280;45234;48.148;17.128;2023-05-16T07:28:03;99515.00;;;15.65
24740;BMP280;45234;48.148;17.128;2023-05-16T07:30:30;99512.91;;;15.62
24740;BMP280;45234;48.148;17.128;2023-05-16T07:32:57;99500.84;;;15.61
24740;BMP280;45234;48.148;17.128;2023-05-16T07:35:25;99499.38;;;15.70
24740;BMP280;45234;48.148;17.128;2023-05-16T07:37:52;99504.63;;;15.70
24740;BMP280;45234;48.148;17.128;2023-05-16T07:40:19;99505.44;;;15.71
24740;BMP280;45234;48.148;17.128;2023-05-16T07:42:51;99518.56;;;15.59
24740;BMP280;45234;48.148;17.128;2023-05-16T07:45:18;99524.75;;;15.53
24740;BMP280;45234;48.148;17.128;2023-05-16T07:47:45;99533.25;;;15.60
24740;BMP280;45234;48.148;17.128;2023-05-16T07:50:12;99539.88;;;15.68
24740;BMP280;45234;48.148;17.128;2023-05-16T07:52:39;99544.44;;;15.77
24740;BMP280;45234;48.148;17.128;2023-05-16T07:55:07;99550.78;;;15.81
24740;BMP280;45234;48.148;17.128;2023-05-16T07:57:34;99554.97;;;15.82
24740;BMP280;45234;48.148;17.128;2023-05-16T08:00:01;99548.88;;;15.77
24740;BMP280;45234;48.148;17.128;2023-05-16T08:02:38;99550.94;;;15.75
24740;BMP280;45234;48.148;17.128;2023-05-16T08:05:06;99552.53;;;15.76
24740;BMP280;45234;48.148;17.128;2023-05-16T08:07:33;99559.56;;;15.75
24740;BMP280;45234;48.148;17.128;2023-05-16T08:10:03;99550.78;;;15.65
24740;BMP280;45234;48.148;17.128;2023-05-16T08:12:30;99564.59;;;15.60
24740;BMP280;45234;48.148;17.128;2023-05-16T08:14:57;99574.53;;;15.63
24740;BMP280;45234;48.148;17.128;2023-05-16T08:17:24;99581.22;;;15.71
24740;BMP280;45234;48.148;17.128;2023-05-16T08:19:51;99583.09;;;15.75
24740;BMP280;45234;48.148;17.128;2023-05-16T08:22:18;99590.19;;;15.80
24740;BMP280;45234;48.148;17.128;2023-05-16T08:24:45;99585.63;;;15.87
24740;BMP280;45234;48.148;17.128;2023-05-16T08:27:12;99592.72;;;15.92
24740;BMP280;45234;48.148;17.128;2023-05-16T08:29:39;99593.84;;;15.96
24740;BMP280;45234;48.148;17.128;2023-05-16T08:32:08;99605.06;;;15.96
24740;BMP280;45234;48.148;17.128;2023-05-16T08:34:36;99597.28;;;16.01
24740;BMP280;45234;48.148;17.128;2023-05-16T08:37:03;99591.84;;;16.03
24740;BMP280;45234;48.148;17.128;2023-05-16T08:39:30;99594.34;;;15.93
24740;BMP280;45234;48.148;17.128;2023-05-16T08:41:57;99598.75;;;15.92
24740;BMP280;45234;48.148;17.128;2023-05-16T08:44:27;99606.53;;;16.04
24740;BMP280;45234;48.148;17.128;2023-05-16T08:46:54;99593.34;;;16.15
24740;BMP280;45234;48.148;17.128;2023-05-16T08:49:22;99594.97;;;16.21
24740;BMP280;45234;48.148;17.128;2023-05-16T08:51:56;99586.16;;;16.28
24740;BMP280;45234;48.148;17.128;2023-05-16T08:54:24;99586.56;;;16.36
24740;BMP280;45234;48.148;17.128;2023-05-16T08:56:54;99569.56;;;16.39
24740;BMP280;45234;48.148;17.128;2023-05-16T08:59:21;99564.03;;;16.35
24740;BMP280;45234;48.148;17.128;2023-05-16T09:01:49;99555.75;;;16.43
24740;BMP280;45234;48.148;17.128;2023-05-16T09:04:16;99536.97;;;16.46
24740;BMP280;45234;48.148;17.128;2023-05-16T09:06:44;99526.00;;;16.49
24740;BMP280;45234;48.148;17.128;2023-05-16T09:09:12;99517.97;;;16.56
24740;BMP280;45234;48.148;17.128;2023-05-16T09:11:39;99516.94;;;16.57
24740;BMP280;45234;48.148;17.128;2023-05-16T09:14:07;99506.69;;;16.55
24740;BMP280;45234;48.148;17.128;2023-05-16T09:16:34;99499.84;;;16.49
24740;BMP280;45234;48.148;17.128;2023-05-16T09:19:02;99494.03;;;16.42
24740;BMP280;45234;48.148;17.128;2023-05-16T09:21:33;99488.88;;;16.26
24740;BMP280;45234;48.148;17.128;2023-05-16T09:24:04;99473.88;;;16.16
24740;BMP280;45234;48.148;17.128;2023-05-16T09:26:36;99476.88;;;16.08
24740;BMP280;45234;48.148;17.128;2023-05-16T09:29:11;99481.47;;;16.01
24740;BMP280;45234;48.148;17.128;2023-05-16T09:31:39;99483.19;;;16.12
24740;BMP280;45234;48.148;17.128;2023-05-16T09:34:09;99477.91;;;16.29
24740;BMP280;45234;48.148;17.128;2023-05-16T09:36:38;99481.47;;;16.44
24740;BMP280;45234;48.148;17.128;2023-05-16T09:39:08;99477.84;;;16.45
24740;BMP280;45234;48.148;17.128;2023-05-16T09:41:35;99484.09;;;16.44
24740;BMP280;45234;48.148;17.128;2023-05-16T09:44:05;99495.56;;;16.43
24740;BMP280;45234;48.148;17.128;2023-05-16T09:46:34;99517.69;;;16.52
24740;BMP280;45234;48.148;17.128;2023-05-16T09:49:02;99530.06;;;16.62
24740;BMP280;45234;48.148;17.128;2023-05-16T09:51:29;99541.63;;;16.66
24740;BMP280;45234;48.148;17.128;2023-05-16T09:53:58;99557.56;;;16.65
24740;BMP280;45234;48.148;17.128;2023-05-16T09:56:26;99555.56;;;16.72
24740;BMP280;45234;48.148;17.128;2023-05-16T09:58:53;99558.41;;;16.70
24740;BMP280;45234;48.148;17.128;2023-05-16T10:01:20;99559.75;;;16.73
24740;BMP280;45234;48.148;17.128;2023-05-16T10:03:47;99565.25;;;16.76
24740;BMP280;45234;48.148;17.128;2023-05-16T10:06:15;99565.16;;;16.88
24740;BMP280;45234;48.148;17.128;2023-05-16T10:08:43;99569.91;;;16.96
24740;BMP280;45234;48.148;17.128;2023-05-16T10:11:10;99576.97;;;16.95
24740;BMP280;45234;48.148;17.128;2023-05-16T10:13:38;99579.56;;;16.90
24740;BMP280;45234;48.148;17.128;2023-05-16T10:16:09;99583.41;;;16.83
24740;BMP280;45234;48.148;17.128;2023-05-16T10:18:38;99595.47;;;16.84
24740;BMP280;45234;48.148;17.128;2023-05-16T10:21:09;99593.88;;;16.83
24740;BMP280;45234;48.148;17.128;2023-05-16T10:23:41;99594.06;;;16.76
24740;BMP280;45234;48.148;17.128;2023-05-16T10:26:09;99588.38;;;16.79
24740;BMP280;45234;48.148;17.128;2023-05-16T10:28:37;99577.38;;;16.82
24740;BMP280;45234;48.148;17.128;2023-05-16T10:31:05;99571.72;;;16.90
24740;BMP280;45234;48.148;17.128;2023-05-16T10:33:35;99579.59;;;16.95
24740;BMP280;45234;48.148;17.128;2023-05-16T10:36:02;99579.59;;;16.95
24740;BMP280;45234;48.148;17.128;2023-05-16T10:38:32;99576.19;;;16.95
24740;BMP280;45234;48.148;17.128;2023-05-16T10:41:01;99581.41;;;16.95
24740;BMP280;45234;48.148;17.128;2023-05-16T10:43:31;99584.31;;;16.93
24740;BMP280;45234;48.148;17.128;2023-05-16T10:46:05;99576.94;;;16.90
24740;BMP280;45234;48.148;17.128;2023-05-16T10:48:35;99569.81;;;16.86
24740;BMP280;45234;48.148;17.128;2023-05-16T10:53:52;99575.00;;;16.81
24740;BMP280;45234;48.148;17.128;2023-05-16T10:56:24;99552.91;;;16.67
24740;BMP280;45234;48.148;17.128;2023-05-16T10:58:53;99547.31;;;16.36
24740;BMP280;45234;48.148;17.128;2023-05-16T11:01:34;99541.72;;;16.06
24740;BMP280;45234;48.148;17.128;2023-05-16T11:06:44;99542.53;;;15.90
24740;BMP280;45234;48.148;17.128;2023-05-16T11:12:00;99528.06;;;15.65
24740;BMP280;45234;48.148;17.128;2023-05-16T11:14:38;99517.25;;;15.57
24740;BMP280;45234;48.148;17.128;2023-05-16T11:17:13;99504.34;;;15.50
24740;BMP280;45234;48.148;17.128;2023-05-16T11:19:59;99505.19;;;15.39
24740;BMP280;45234;48.148;17.128;2023-05-16T11:22:28;99505.06;;;15.62
24740;BMP280;45234;48.148;17.128;2023-05-16T11:25:05;99503.47;;;15.61
24740;BMP280;45234;48.148;17.128;2023-05-16T11:27:34;99505.19;;;15.72
24740;BMP280;45234;48.148;17.128;2023-05-16T11:32:37;99517.44;;;15.88
24740;BMP280;45234;48.148;17.128;2023-05-16T11:35:09;99504.84;;;15.85
24740;BMP280;45234;48.148;17.128;2023-05-16T11:37:40;99500.72;;;15.90
24740;BMP280;45234;48.148;17.128;2023-05-16T11:40:09;99501.69;;;15.83
24740;BMP280;45234;48.148;17.128;2023-05-16T11:47:39;99505.50;;;15.59
24740;BMP280;45234;48.148;17.128;2023-05-16T11:50:12;99499.97;;;15.39
24740;BMP280;45234;48.148;17.128;2023-05-16T11:52:43;99506.75;;;15.06
24740;BMP280;45234;48.148;17.128;2023-05-16T11:55:11;99505.47;;;14.92
24740;BMP280;45234;48.148;17.128;2023-05-16T11:57:59;99500.78;;;14.77
24740;BMP280;45234;48.148;17.128;2023-05-16T12:00:26;99496.13;;;14.79
24740;BMP280;45234;48.148;17.128;2023-05-16T12:02:59;99494.88;;;14.82
24740;BMP280;45234;48.148;17.128;2023-05-16T12:05:27;99479.53;;;14.86
24740;BMP280;45234;48.148;17.128;2023-05-16T12:07:57;99485.69;;;14.96
24740;BMP280;45234;48.148;17.128;2023-05-16T12:10:25;99475.91;;;15.03
24740;BMP280;45234;48.148;17.128;2023-05-16T12:12:53;99484.94;;;15.12
24740;BMP280;45234;48.148;17.128;2023-05-16T12:15:20;99471.50;;;15.21
24740;BMP280;45234;48.148;17.128;2023-05-16T12:17:48;99461.44;;;15.29
24740;BMP280;45234;48.148;17.128;2023-05-16T12:20:16;99466.44;;;15.31
24740;BMP280;45234;48.148;17.128;2023-05-16T12:22:44;99465.47;;;15.37
24740;BMP280;45234;48.148;17.128;2023-05-16T12:28:03;99461.28;;;15.36
24740;BMP280;45234;48.148;17.128;2023-05-16T12:30:31;99453.84;;;15.28
24740;BMP280;45234;48.148;17.128;2023-05-16T12:32:59;99449.38;;;15.23
24740;BMP280;45234;48.148;17.128;2023-05-16T12:35:32;99449.84;;;15.20
24740;BMP280;45234;48.148;17.128;2023-05-16T12:38:13;99449.84;;;15.20
24740;BMP280;45234;48.148;17.128;2023-05-16T12:40:42;99447.38;;;15.13
24740;BMP280;45234;48.148;17.128;2023-05-16T12:43:19;99438.88;;;15.06
24740;BMP280;45234;48.148;17.128;2023-05-16T12:45:54;99433.22;;;15.09
24740;BMP280;45234;48.148;17.128;2023-05-16T12:48:23;99436.41;;;15.11
24740;BMP280;45234;48.148;17.128;2023-05-16T12:50:50;99438.66;;;15.25
24740;BMP280;45234;48.148;17.128;2023-05-16T12:53:17;99439.53;;;15.30
24740;BMP280;45234;48.148;17.128;2023-05-16T12:55:45;99444.16;;;15.40
24740;BMP280;45234;48.148;17.128;2023-05-16T12:58:12;99445.88;;;15.51
24740;BMP280;45234;48.148;17.128;2023-05-16T13:00:39;99441.56;;;15.62
24740;BMP280;45234;48.148;17.128;2023-05-16T13:03:06;99439.81;;;15.67
24740;BMP280;45234;48.148;17.128;2023-05-16T13:05:34;99436.69;;;15.70
24740;BMP280;45234;48.148;17.128;2023-05-16T13:08:02;99437.00;;;15.74
24740;BMP280;45234;48.148;17.128;2023-05-16T13:10:29;99431.53;;;15.75
24740;BMP280;45234;48.148;17.128;2023-05-16T13:12:56;99420.94;;;15.82
24740;BMP280;45234;48.148;17.128;2023-05-16T13:15:27;99412.63;;;15.90
24740;BMP280;45234;48.148;17.128;2023-05-16T13:17:54;99409.44;;;16.05
24740;BMP280;45234;48.148;17.128;2023-05-16T13:20:22;99410.78;;;16.12
24740;BMP280;45234;48.148;17.128;2023-05-16T13:22:49;99416.47;;;16.26
24740;BMP280;45234;48.148;17.128;2023-05-16T13:25:16;99413.47;;;16.44
24740;BMP280;45234;48.148;17.128;2023-05-16T13:27:43;99405.69;;;16.54
24740;BMP280;45234;48.148;17.128;2023-05-16T13:30:10;99410.75;;;16.61
24740;BMP280;45234;48.148;17.128;2023-05-16T13:32:37;99398.38;;;16.51
24740;BMP280;45234;48.148;17.128;2023-05-16T13:35:04;99403.09;;;16.54
24740;BMP280;45234;48.148;17.128;2023-05-16T13:37:31;99396.78;;;16.50
24740;BMP280;45234;48.148;17.128;2023-05-16T13:39:59;99405.09;;;16.42
24740;BMP280;45234;48.148;17.128;2023-05-16T13:42:26;99398.59;;;16.23
24740;BMP280;45234;48.148;17.128;2023-05-16T13:44:53;99398.38;;;16.24
24740;BMP280;45234;48.148;17.128;2023-05-16T13:47:20;99382.88;;;16.18
24740;BMP280;45234;48.148;17.128;2023-05-16T13:49:46;99376.69;;;16.24
24740;BMP280;45234;48.148;17.128;2023-05-16T13:52:14;99372.56;;;16.06
24740;BMP280;45234;48.148;17.128;2023-05-16T13:54:41;99369.06;;;15.96
24740;BMP280;45234;48.148;17.128;2023-05-16T13:57:08;99372.09;;;15.87
24740;BMP280;45234;48.148;17.128;2023-05-16T13:59:35;99369.91;;;15.79
24740;BMP280;45234;48.148;17.128;2023-05-16T14:02:05;99374.72;;;15.66
24740;BMP280;45234;48.148;17.128;2023-05-16T14:04:31;99372.00;;;15.56
24740;BMP280;45234;48.148;17.128;2023-05-16T14:06:58;99378.88;;;15.40
24740;BMP280;45234;48.148;17.128;2023-05-16T14:09:25;99379.75;;;15.29
24740;BMP280;45234;48.148;17.128;2023-05-16T14:11:52;99373.34;;;15.20
24740;BMP280;45234;48.148;17.128;2023-05-16T14:14:19;99381.03;;;15.09
24740;BMP280;45234;48.148;17.128;2023-05-16T14:16:46;99376.88;;;15.13
24740;BMP280;45234;48.148;17.128;2023-05-16T14:19:14;99372.88;;;15.23
24740;BMP280;45234;48.148;17.128;2023-05-16T14:21:44;99374.94;;;15.21
24740;BMP280;45234;48.148;17.128;2023-05-16T14:24:11;99372.66;;;15.07
24740;BMP280;45234;48.148;17.128;2023-05-16T14:26:38;99379.44;;;15.08
24740;BMP280;45234;48.148;17.128;2023-05-16T14:29:05;99372.56;;;15.02
24740;BMP280;45234;48.148;17.128;2023-05-16T14:31:32;99368.69;;;15.05
24740;BMP280;45234;48.148;17.128;2023-05-16T14:34:02;99369.72;;;15.04
24740;BMP280;45234;48.148;17.128;2023-05-16T14:36:29;99366.25;;;14.98